Foss, Oklahoma
Current Conditions -  °F | °C
As of 8:53 PM on Friday 19 Dec 2014 (Local Time) from KCSM Reporting Station
Overcast Overcast  
Wind Chill: 39°   Ceiling: 2500
Heat Index: 42°   Visibility: 9mi
Dew Point: 37°   Wind: 5mph
Humidity: 82%   Direction: 140°SE
Pressure: 30.2"   Gusts: NA
Location:  35.45°N, 99.17°W
Report Text: KCSM 200253Z 14004KT 9SM OVC025 06/03 A3020 RMK AO2 SLP231 T00560028 51005
Loading
Personal Weather Stations






























Interactive Weather Map New forecast layout! Learn more

10-Day Weather Forecast

Advertisements
Track Severe Weather on mobile